sensor_id;sensor_type;location;lat;lon;timestamp;pressure;altitude;pressure_sealevel;temperature;humidity
29371;BME280;16357;52.188;7.838;2023-07-31T00:01:52;100273.34;;;20.24;59.69
29371;BME280;16357;52.188;7.838;2023-07-31T00:04:19;100257.25;;;20.22;59.42
29371;BME280;16357;52.188;7.838;2023-07-31T00:06:45;100261.28;;;20.20;59.63
29371;BME280;16357;52.188;7.838;2023-07-31T00:09:11;100260.91;;;20.16;59.67
29371;BME280;16357;52.188;7.838;2023-07-31T00:11:38;100250.25;;;20.14;59.94
29371;BME280;16357;52.188;7.838;2023-07-31T00:14:04;100246.09;;;20.12;59.96
29371;BME280;16357;52.188;7.838;2023-07-31T00:16:31;100241.94;;;20.09;60.11
29371;BME280;16357;52.188;7.838;2023-07-31T00:18:57;100240.25;;;20.08;60.41
29371;BME280;16357;52.188;7.838;2023-07-31T00:21:24;100243.44;;;20.05;60.51
29371;BME280;16357;52.188;7.838;2023-07-31T00:23:50;100234.69;;;20.03;60.25
29371;BME280;16357;52.188;7.838;2023-07-31T00:26:17;100238.69;;;20.01;60.26
29371;BME280;16357;52.188;7.838;2023-07-31T00:28:43;100233.50;;;19.99;60.63
29371;BME280;16357;52.188;7.838;2023-07-31T00:31:10;100242.94;;;19.97;60.73
29371;BME280;16357;52.188;7.838;2023-07-31T00:33:37;100238.81;;;19.94;60.25
29371;BME280;16357;52.188;7.838;2023-07-31T00:36:04;100236.53;;;19.91;60.44
29371;BME280;16357;52.188;7.838;2023-07-31T00:38:30;100225.25;;;19.87;60.64
29371;BME280;16357;52.188;7.838;2023-07-31T00:40:57;100231.16;;;19.84;60.76
29371;BME280;16357;52.188;7.838;2023-07-31T00:43:24;100230.81;;;19.81;60.58
29371;BME280;16357;52.188;7.838;2023-07-31T00:45:51;100224.75;;;19.79;61.07
29371;BME280;16357;52.188;7.838;2023-07-31T00:48:17;100231.28;;;19.78;60.86
29371;BME280;16357;52.188;7.838;2023-07-31T00:50:44;100226.25;;;19.74;61.38
29371;BME280;16357;52.188;7.838;2023-07-31T00:53:10;100226.50;;;19.73;61.23
29371;BME280;16357;52.188;7.838;2023-07-31T00:55:37;100229.22;;;19.73;61.01
29371;BME280;16357;52.188;7.838;2023-07-31T00:58:03;100225.69;;;19.72;61.10
29371;BME280;16357;52.188;7.838;2023-07-31T01:00:30;100223.78;;;19.73;61.29
29371;BME280;16357;52.188;7.838;2023-07-31T01:02:56;100227.56;;;19.72;61.18
29371;BME280;16357;52.188;7.838;2023-07-31T01:05:33;100230.06;;;19.73;60.95
29371;BME280;16357;52.188;7.838;2023-07-31T01:08:11;100233.00;;;19.72;60.83
29371;BME280;16357;52.188;7.838;2023-07-31T01:10:41;100229.00;;;19.74;59.78
29371;BME280;16357;52.188;7.838;2023-07-31T01:13:11;100221.28;;;19.71;60.63
29371;BME280;16357;52.188;7.838;2023-07-31T01:15:38;100221.75;;;19.68;60.87
29371;BME280;16357;52.188;7.838;2023-07-31T01:18:05;100211.28;;;19.65;61.00
29371;BME280;16357;52.188;7.838;2023-07-31T01:20:32;100217.19;;;19.62;61.17
29371;BME280;16357;52.188;7.838;2023-07-31T01:23:21;100206.78;;;19.59;60.69
29371;BME280;16357;52.188;7.838;2023-07-31T01:26:08;100202.63;;;19.57;60.92
29371;BME280;16357;52.188;7.838;2023-07-31T01:31:16;100201.41;;;19.52;61.48
29371;BME280;16357;52.188;7.838;2023-07-31T01:33:45;100194.78;;;19.48;61.62
29371;BME280;16357;52.188;7.838;2023-07-31T01:36:12;100195.00;;;19.47;61.76
29371;BME280;16357;52.188;7.838;2023-07-31T01:38:38;100192.28;;;19.47;61.82
29371;BME280;16357;52.188;7.838;2023-07-31T01:41:05;100183.50;;;19.45;61.37
29371;BME280;16357;52.188;7.838;2023-07-31T01:43:31;100180.16;;;19.43;61.52
29371;BME280;16357;52.188;7.838;2023-07-31T01:45:58;100177.69;;;19.41;61.64
29371;BME280;16357;52.188;7.838;2023-07-31T01:48:24;100173.53;;;19.39;61.79
29371;BME280;16357;52.188;7.838;2023-07-31T01:50:51;100169.16;;;19.38;61.88
29371;BME280;16357;52.188;7.838;2023-07-31T01:53:17;100168.56;;;19.36;62.04
29371;BME280;16357;52.188;7.838;2023-07-31T01:55:43;100168.78;;;19.34;62.33
29371;BME280;16357;52.188;7.838;2023-07-31T01:58:10;100169.03;;;19.33;62.44
29371;BME280;16357;52.188;7.838;2023-07-31T02:00:37;100159.44;;;19.30;62.42
29371;BME280;16357;52.188;7.838;2023-07-31T02:03:03;100169.47;;;19.29;62.02
29371;BME280;16357;52.188;7.838;2023-07-31T02:05:30;100168.03;;;19.27;62.52
29371;BME280;16357;52.188;7.838;2023-07-31T02:07:56;100172.03;;;19.24;62.24
29371;BME280;16357;52.188;7.838;2023-07-31T02:10:23;100170.38;;;19.23;62.13
29371;BME280;16357;52.188;7.838;2023-07-31T02:12:49;100163.50;;;19.21;62.74
29371;BME280;16357;52.188;7.838;2023-07-31T02:15:16;100163.72;;;19.19;63.06
29371;BME280;16357;52.188;7.838;2023-07-31T02:17:42;100155.81;;;19.18;62.54
29371;BME280;16357;52.188;7.838;2023-07-31T02:20:09;100163.34;;;19.16;62.77
29371;BME280;16357;52.188;7.838;2023-07-31T02:22:36;100160.63;;;19.16;62.78
29371;BME280;16357;52.188;7.838;2023-07-31T02:25:02;100154.38;;;19.15;63.00
29371;BME280;16357;52.188;7.838;2023-07-31T02:27:29;100156.47;;;19.13;63.41
29371;BME280;16357;52.188;7.838;2023-07-31T02:29:55;100147.72;;;19.11;63.25
29371;BME280;16357;52.188;7.838;2023-07-31T02:32:22;100147.97;;;19.10;63.19
29371;BME280;16357;52.188;7.838;2023-07-31T02:34:48;100141.69;;;19.09;63.50
29371;BME280;16357;52.188;7.838;2023-07-31T02:37:15;100143.81;;;19.07;63.45
29371;BME280;16357;52.188;7.838;2023-07-31T02:39:41;100139.41;;;19.06;63.78
29371;BME280;16357;52.188;7.838;2023-07-31T02:42:08;100140.47;;;19.05;63.94
29371;BME280;16357;52.188;7.838;2023-07-31T02:44:34;100131.50;;;19.04;63.79
29371;BME280;16357;52.188;7.838;2023-07-31T02:47:01;100132.53;;;19.03;63.93
29371;BME280;16357;52.188;7.838;2023-07-31T02:49:27;100129.81;;;19.03;63.90
29371;BME280;16357;52.188;7.838;2023-07-31T02:51:54;100127.94;;;19.04;63.92
29371;BME280;16357;52.188;7.838;2023-07-31T02:54:20;100129.00;;;19.03;64.17
29371;BME280;16357;52.188;7.838;2023-07-31T02:56:48;100129.59;;;19.05;63.92
29371;BME280;16357;52.188;7.838;2023-07-31T02:59:14;100130.66;;;19.04;64.06
29371;BME280;16357;52.188;7.838;2023-07-31T03:01:41;100130.66;;;19.04;64.19
29371;BME280;16357;52.188;7.838;2023-07-31T03:04:07;100118.72;;;19.05;64.10
29371;BME280;16357;52.188;7.838;2023-07-31T03:06:33;100128.78;;;19.04;64.05
29371;BME280;16357;52.188;7.838;2023-07-31T03:09:00;100120.00;;;19.02;64.82
29371;BME280;16357;52.188;7.838;2023-07-31T03:11:26;100116.47;;;19.02;64.69
29371;BME280;16357;52.188;7.838;2023-07-31T03:13:53;100115.84;;;19.00;64.68
29371;BME280;16357;52.188;7.838;2023-07-31T03:16:20;100115.84;;;19.00;64.73
29371;BME280;16357;52.188;7.838;2023-07-31T03:18:47;100115.84;;;19.00;64.89
29371;BME280;16357;52.188;7.838;2023-07-31T03:21:14;100116.06;;;18.98;65.03
29371;BME280;16357;52.188;7.838;2023-07-31T03:23:40;100116.91;;;18.99;65.00
29371;BME280;16357;52.188;7.838;2023-07-31T03:26:08;100110.41;;;19.00;65.42
29371;BME280;16357;52.188;7.838;2023-07-31T03:28:35;100102.25;;;19.00;65.77
29371;BME280;16357;52.188;7.838;2023-07-31T03:31:01;100101.19;;;19.01;65.77
29371;BME280;16357;52.188;7.838;2023-07-31T03:33:28;100100.16;;;19.02;65.76
29371;BME280;16357;52.188;7.838;2023-07-31T03:35:55;100100.97;;;19.02;65.65
29371;BME280;16357;52.188;7.838;2023-07-31T03:38:21;100100.75;;;19.04;65.94
29371;BME280;16357;52.188;7.838;2023-07-31T03:40:47;100103.47;;;19.04;66.00
29371;BME280;16357;52.188;7.838;2023-07-31T03:43:15;100098.63;;;19.06;66.20
29371;BME280;16357;52.188;7.838;2023-07-31T03:45:41;100093.19;;;19.06;66.18
29371;BME280;16357;52.188;7.838;2023-07-31T03:48:08;100078.56;;;19.07;66.02
29371;BME280;16357;52.188;7.838;2023-07-31T03:50:35;100086.47;;;19.08;66.21
29371;BME280;16357;52.188;7.838;2023-07-31T03:53:01;100083.53;;;19.10;66.36
29371;BME280;16357;52.188;7.838;2023-07-31T03:55:28;100084.34;;;19.11;66.25
29371;BME280;16357;52.188;7.838;2023-07-31T03:57:54;100075.16;;;19.12;66.54
29371;BME280;16357;52.188;7.838;2023-07-31T04:00:21;100082.25;;;19.13;66.42
29371;BME280;16357;52.188;7.838;2023-07-31T04:02:48;100083.06;;;19.13;66.50
29371;BME280;16357;52.188;7.838;2023-07-31T04:05:15;100086.38;;;19.15;66.51
29371;BME280;16357;52.188;7.838;2023-07-31T04:07:41;100081.78;;;19.16;66.24
29371;BME280;16357;52.188;7.838;2023-07-31T04:10:08;100086.16;;;19.17;66.37
29371;BME280;16357;52.188;7.838;2023-07-31T04:12:38;100078.84;;;19.17;66.21
29371;BME280;16357;52.188;7.838;2023-07-31T04:15:05;100094.09;;;19.18;66.65
29371;BME280;16357;52.188;7.838;2023-07-31T04:17:32;100092.19;;;19.19;66.55
29371;BME280;16357;52.188;7.838;2023-07-31T04:19:58;100091.38;;;19.18;66.79
29371;BME280;16357;52.188;7.838;2023-07-31T04:22:25;100085.94;;;19.18;66.70
29371;BME280;16357;52.188;7.838;2023-07-31T04:24:51;100088.88;;;19.17;66.68
29371;BME280;16357;52.188;7.838;2023-07-31T04:27:18;100094.31;;;19.17;66.88
29371;BME280;16357;52.188;7.838;2023-07-31T04:29:44;100098.91;;;19.16;66.68
29371;BME280;16357;52.188;7.838;2023-07-31T04:32:13;100098.09;;;19.16;66.77
29371;BME280;16357;52.188;7.838;2023-07-31T04:34:42;100103.53;;;19.16;66.88
29371;BME280;16357;52.188;7.838;2023-07-31T04:37:08;100103.53;;;19.16;67.14
29371;BME280;16357;52.188;7.838;2023-07-31T04:39:35;100102.72;;;19.15;66.58
29371;BME280;16357;52.188;7.838;2023-07-31T04:42:01;100102.72;;;19.15;66.72
29371;BME280;16357;52.188;7.838;2023-07-31T04:44:28;100102.72;;;19.15;66.72
29371;BME280;16357;52.188;7.838;2023-07-31T04:46:55;100112.50;;;19.16;66.72
29371;BME280;16357;52.188;7.838;2023-07-31T04:49:21;100109.22;;;19.14;66.56
29371;BME280;16357;52.188;7.838;2023-07-31T04:51:48;100104.81;;;19.13;66.73
29371;BME280;16357;52.188;7.838;2023-07-31T04:54:14;100088.75;;;19.12;66.87
29371;BME280;16357;52.188;7.838;2023-07-31T04:56:41;100093.31;;;19.11;66.49
29371;BME280;16357;52.188;7.838;2023-07-31T04:59:07;100100.66;;;19.11;66.58
29371;BME280;16357;52.188;7.838;2023-07-31T05:01:34;100098.19;;;19.09;66.46
29371;BME280;16357;52.188;7.838;2023-07-31T05:04:01;100103.63;;;19.09;66.42
29371;BME280;16357;52.188;7.838;2023-07-31T05:06:27;100112.59;;;19.10;66.45
29371;BME280;16357;52.188;7.838;2023-07-31T05:08:54;100106.34;;;19.09;66.29
29371;BME280;16357;52.188;7.838;2023-07-31T05:11:20;100108.22;;;19.08;66.23
29371;BME280;16357;52.188;7.838;2023-07-31T05:13:46;100111.78;;;19.09;66.34
29371;BME280;16357;52.188;7.838;2023-07-31T05:16:13;100108.00;;;19.10;66.21
29371;BME280;16357;52.188;7.838;2023-07-31T05:18:39;100106.94;;;19.11;66.14
29371;BME280;16357;52.188;7.838;2023-07-31T05:21:06;100109.66;;;19.11;65.96
29371;BME280;16357;52.188;7.838;2023-07-31T05:23:33;100108.59;;;19.12;66.00
29371;BME280;16357;52.188;7.838;2023-07-31T05:26:06;100106.50;;;19.14;65.52
29371;BME280;16357;52.188;7.838;2023-07-31T05:28:34;100093.13;;;19.13;65.29
29371;BME280;16357;52.188;7.838;2023-07-31T05:31:02;100099.38;;;19.13;65.49
29371;BME280;16357;52.188;7.838;2023-07-31T05:33:29;100093.94;;;19.13;65.19
29371;BME280;16357;52.188;7.838;2023-07-31T05:35:55;100094.75;;;19.14;65.24
29371;BME280;16357;52.188;7.838;2023-07-31T05:38:22;100095.63;;;19.14;65.43
29371;BME280;16357;52.188;7.838;2023-07-31T05:40:48;100098.09;;;19.16;65.33
29371;BME280;16357;52.188;7.838;2023-07-31T05:43:15;100099.75;;;19.17;65.41
29371;BME280;16357;52.188;7.838;2023-07-31T05:45:42;100102.47;;;19.17;65.10
29371;BME280;16357;52.188;7.838;2023-07-31T05:48:09;100097.63;;;19.19;65.14
29371;BME280;16357;52.188;7.838;2023-07-31T05:50:35;100094.69;;;19.20;65.02
29371;BME280;16357;52.188;7.838;2023-07-31T05:53:03;100093.63;;;19.21;65.50
29371;BME280;16357;52.188;7.838;2023-07-31T05:55:29;100098.03;;;19.22;65.15
29371;BME280;16357;52.188;7.838;2023-07-31T05:57:56;100095.88;;;19.24;65.25
29371;BME280;16357;52.188;7.838;2023-07-31T06:00:26;100096.50;;;19.26;65.18
29371;BME280;16357;52.188;7.838;2023-07-31T06:02:53;100087.03;;;19.29;64.86
29371;BME280;16357;52.188;7.838;2023-07-31T06:05:20;100079.69;;;19.29;64.88
29371;BME280;16357;52.188;7.838;2023-07-31T06:07:46;100080.56;;;19.30;64.88
29371;BME280;16357;52.188;7.838;2023-07-31T06:10:13;100081.59;;;19.29;64.56
29371;BME280;16357;52.188;7.838;2023-07-31T06:12:39;100080.78;;;19.28;64.92
29371;BME280;16357;52.188;7.838;2023-07-31T06:15:06;100073.69;;;19.27;64.73
29371;BME280;16357;52.188;7.838;2023-07-31T06:17:33;100077.44;;;19.26;64.54
29371;BME280;16357;52.188;7.838;2023-07-31T06:19:59;100075.81;;;19.25;64.69
29371;BME280;16357;52.188;7.838;2023-07-31T06:22:26;100077.69;;;19.25;65.17
29371;BME280;16357;52.188;7.838;2023-07-31T06:24:52;100079.56;;;19.24;64.89
29371;BME280;16357;52.188;7.838;2023-07-31T06:27:19;100086.69;;;19.25;65.38
29371;BME280;16357;52.188;7.838;2023-07-31T06:29:45;100083.72;;;19.27;65.85
29371;BME280;16357;52.188;7.838;2023-07-31T06:32:12;100077.84;;;19.30;65.86
29371;BME280;16357;52.188;7.838;2023-07-31T06:34:38;100079.03;;;19.34;66.02
29371;BME280;16357;52.188;7.838;2023-07-31T06:37:05;100079.38;;;19.38;65.96
29371;BME280;16357;52.188;7.838;2023-07-31T06:39:31;100073.25;;;19.42;65.89
29371;BME280;16357;52.188;7.838;2023-07-31T06:41:58;100078.00;;;19.47;65.95
29371;BME280;16357;52.188;7.838;2023-07-31T06:44:24;100080.03;;;19.51;65.97
29371;BME280;16357;52.188;7.838;2023-07-31T06:46:51;100079.56;;;19.55;65.39
29371;BME280;16357;52.188;7.838;2023-07-31T06:49:17;100084.56;;;19.58;65.65
29371;BME280;16357;52.188;7.838;2023-07-31T06:51:43;100073.19;;;19.61;65.62
29371;BME280;16357;52.188;7.838;2023-07-31T06:54:10;100077.34;;;19.63;65.33
29371;BME280;16357;52.188;7.838;2023-07-31T06:56:37;100076.06;;;19.66;65.41
29371;BME280;16357;52.188;7.838;2023-07-31T06:59:06;100081.88;;;19.69;65.45
29371;BME280;16357;52.188;7.838;2023-07-31T07:01:33;100069.94;;;19.70;65.20
29371;BME280;16357;52.188;7.838;2023-07-31T07:03:59;100062.38;;;19.72;65.30
29371;BME280;16357;52.188;7.838;2023-07-31T07:06:26;100063.81;;;19.75;65.22
29371;BME280;16357;52.188;7.838;2023-07-31T07:08:53;100055.41;;;19.77;65.33
29371;BME280;16357;52.188;7.838;2023-07-31T07:11:19;100057.06;;;19.78;65.36
29371;BME280;16357;52.188;7.838;2023-07-31T07:13:46;100053.88;;;19.81;65.35
29371;BME280;16357;52.188;7.838;2023-07-31T07:16:12;100059.31;;;19.81;64.72
29371;BME280;16357;52.188;7.838;2023-07-31T07:18:39;100053.88;;;19.81;64.95
29371;BME280;16357;52.188;7.838;2023-07-31T07:21:19;100060.38;;;19.80;64.79
29371;BME280;16357;52.188;7.838;2023-07-31T07:23:45;100064.16;;;19.79;64.74
29371;BME280;16357;52.188;7.838;2023-07-31T07:26:12;100056.22;;;19.77;65.15
29371;BME280;16357;52.188;7.838;2023-07-31T07:28:38;100061.66;;;19.77;65.48
29371;BME280;16357;52.188;7.838;2023-07-31T07:31:05;100062.75;;;19.76;65.37
29371;BME280;16357;52.188;7.838;2023-07-31T07:33:31;100061.31;;;19.73;65.36
29371;BME280;16357;52.188;7.838;2023-07-31T07:36:01;100055.03;;;19.73;65.37
29371;BME280;16357;52.188;7.838;2023-07-31T07:38:28;100040.00;;;19.70;66.09
29371;BME280;16357;52.188;7.838;2023-07-31T07:40:54;100049.22;;;19.69;66.02
29371;BME280;16357;52.188;7.838;2023-07-31T07:43:21;100041.31;;;19.68;66.10
29371;BME280;16357;52.188;7.838;2023-07-31T07:45:47;100031.69;;;19.65;66.36
29371;BME280;16357;52.188;7.838;2023-07-31T07:48:14;100035.03;;;19.67;66.40
29371;BME280;16357;52.188;7.838;2023-07-31T07:50:40;100040.47;;;19.67;66.61
29371;BME280;16357;52.188;7.838;2023-07-31T07:53:07;100033.16;;;19.68;66.94
29371;BME280;16357;52.188;7.838;2023-07-31T07:55:35;100036.47;;;19.70;66.82
29371;BME280;16357;52.188;7.838;2023-07-31T07:58:01;100027.00;;;19.72;67.24
29371;BME280;16357;52.188;7.838;2023-07-31T08:00:28;100026.28;;;19.77;67.31
29371;BME280;16357;52.188;7.838;2023-07-31T08:02:54;100024.97;;;19.80;67.20
29371;BME280;16357;52.188;7.838;2023-07-31T08:05:21;100020.75;;;19.84;67.43
29371;BME280;16357;52.188;7.838;2023-07-31T08:07:47;100010.19;;;19.87;67.57
29371;BME280;16357;52.188;7.838;2023-07-31T08:10:14;100014.94;;;19.92;67.82
29371;BME280;16357;52.188;7.838;2023-07-31T08:12:40;100004.19;;;19.97;67.84
29371;BME280;16357;52.188;7.838;2023-07-31T08:15:07;100011.41;;;20.03;68.04
29371;BME280;16357;52.188;7.838;2023-07-31T08:17:34;100004.16;;;20.09;67.96
29371;BME280;16357;52.188;7.838;2023-07-31T08:20:00;99995.88;;;20.15;67.65
29371;BME280;16357;52.188;7.838;2023-07-31T08:22:27;99990.56;;;20.21;67.84
29371;BME280;16357;52.188;7.838;2023-07-31T08:24:53;99991.50;;;20.26;67.00
29371;BME280;16357;52.188;7.838;2023-07-31T08:27:20;99989.97;;;20.30;67.04
29371;BME280;16357;52.188;7.838;2023-07-31T08:29:46;99996.84;;;20.33;67.25
29371;BME280;16357;52.188;7.838;2023-07-31T08:32:13;99983.78;;;20.35;67.14
29371;BME280;16357;52.188;7.838;2023-07-31T08:34:39;99986.28;;;20.36;66.89
29371;BME280;16357;52.188;7.838;2023-07-31T08:37:06;99978.91;;;20.37;67.32
29371;BME280;16357;52.188;7.838;2023-07-31T08:39:32;99979.28;;;20.41;67.54
29371;BME280;16357;52.188;7.838;2023-07-31T08:41:59;99977.13;;;20.43;67.57
29371;BME280;16357;52.188;7.838;2023-07-31T08:44:26;99976.66;;;20.46;67.50
29371;BME280;16357;52.188;7.838;2023-07-31T08:46:53;99978.06;;;20.48;67.45
29371;BME280;16357;52.188;7.838;2023-07-31T08:49:22;99966.72;;;20.51;67.38
29371;BME280;16357;52.188;7.838;2023-07-31T08:51:50;99963.53;;;20.54;67.72
29371;BME280;16357;52.188;7.838;2023-07-31T08:54:17;99966.84;;;20.56;67.46
29371;BME280;16357;52.188;7.838;2023-07-31T08:56:44;99965.53;;;20.59;67.79
29371;BME280;16357;52.188;7.838;2023-07-31T08:59:12;99960.16;;;20.64;67.67
29371;BME280;16357;52.188;7.838;2023-07-31T09:01:43;99963.25;;;20.68;67.30
29371;BME280;16357;52.188;7.838;2023-07-31T09:04:16;99963.59;;;20.71;67.44
29371;BME280;16357;52.188;7.838;2023-07-31T09:06:45;99957.63;;;20.74;67.33
29371;BME280;16357;52.188;7.838;2023-07-31T09:09:12;99964.50;;;20.77;67.49
29371;BME280;16357;52.188;7.838;2023-07-31T09:11:38;99959.66;;;20.79;67.50
29371;BME280;16357;52.188;7.838;2023-07-31T09:14:06;99956.19;;;20.83;67.42
29371;BME280;16357;52.188;7.838;2023-07-31T09:16:35;99961.16;;;20.87;67.32
29371;BME280;16357;52.188;7.838;2023-07-31T09:19:02;99959.84;;;20.89;67.21
29371;BME280;16357;52.188;7.838;2023-07-31T09:21:29;99963.97;;;20.92;66.93
29371;BME280;16357;52.188;7.838;2023-07-31T09:24:02;99954.50;;;20.94;66.58
29371;BME280;16357;52.188;7.838;2023-07-31T09:28:57;99958.84;;;20.95;66.87
29371;BME280;16357;52.188;7.838;2023-07-31T09:31:41;99954.00;;;20.97;66.61
29371;BME280;16357;52.188;7.838;2023-07-31T09:34:08;99950.19;;;20.98;66.93
29371;BME280;16357;52.188;7.838;2023-07-31T09:36:40;99958.13;;;21.00;66.85
29371;BME280;16357;52.188;7.838;2023-07-31T09:39:11;99960.84;;;21.00;66.43
29371;BME280;16357;52.188;7.838;2023-07-31T09:41:39;99954.59;;;20.99;66.47
29371;BME280;16357;52.188;7.838;2023-07-31T09:44:06;99939.28;;;20.98;66.36
29371;BME280;16357;52.188;7.838;2023-07-31T09:46:36;99956.22;;;21.00;66.21
29371;BME280;16357;52.188;7.838;2023-07-31T09:51:32;99945.81;;;20.97;66.40
29371;BME280;16357;52.188;7.838;2023-07-31T09:54:09;99945.00;;;20.97;65.95
29371;BME280;16357;52.188;7.838;2023-07-31T09:56:41;99951.28;;;20.97;65.83
29371;BME280;16357;52.188;7.838;2023-07-31T09:59:14;99944.16;;;20.96;65.71
29371;BME280;16357;52.188;7.838;2023-07-31T10:01:43;99931.59;;;20.95;65.74
29371;BME280;16357;52.188;7.838;2023-07-31T10:04:10;99940.03;;;20.94;65.87
29371;BME280;16357;52.188;7.838;2023-07-31T10:06:38;99937.53;;;20.92;66.00
29371;BME280;16357;52.188;7.838;2023-07-31T10:09:06;99937.53;;;20.92;65.93
29371;BME280;16357;52.188;7.838;2023-07-31T10:11:43;99945.72;;;20.92;66.18
29371;BME280;16357;52.188;7.838;2023-07-31T10:14:20;99935.41;;;20.94;66.18
29371;BME280;16357;52.188;7.838;2023-07-31T10:16:47;99927.00;;;20.96;66.51
29371;BME280;16357;52.188;7.838;2023-07-31T10:19:14;99935.50;;;20.99;66.31
29371;BME280;16357;52.188;7.838;2023-07-31T10:21:42;99936.66;;;21.03;66.41
29371;BME280;16357;52.188;7.838;2023-07-31T10:24:09;99926.09;;;21.07;66.25
29371;BME280;16357;52.188;7.838;2023-07-31T10:26:37;99931.63;;;21.12;66.09
29371;BME280;16357;52.188;7.838;2023-07-31T10:29:06;99932.78;;;21.16;66.11
29371;BME280;16357;52.188;7.838;2023-07-31T10:31:33;99933.69;;;21.22;66.45
29371;BME280;16357;52.188;7.838;2023-07-31T10:34:02;99916.59;;;21.26;65.34
29371;BME280;16357;52.188;7.838;2023-07-31T10:36:29;99921.91;;;21.33;65.66
29371;BME280;16357;52.188;7.838;2023-07-31T10:38:56;99914.03;;;21.37;65.58
29371;BME280;16357;52.188;7.838;2023-07-31T10:41:32;99903.25;;;21.42;65.19
29371;BME280;16357;52.188;7.838;2023-07-31T10:43:59;99907.69;;;21.48;65.00
29371;BME280;16357;52.188;7.838;2023-07-31T10:46:27;99919.47;;;21.48;64.63
29371;BME280;16357;52.188;7.838;2023-07-31T10:48:58;99915.88;;;21.48;64.54
29371;BME280;16357;52.188;7.838;2023-07-31T10:51:35;99921.34;;;21.48;64.26
29371;BME280;16357;52.188;7.838;2023-07-31T10:54:12;99913.66;;;21.45;63.98
29371;BME280;16357;52.188;7.838;2023-07-31T10:56:39;99918.78;;;21.41;64.38
29371;BME280;16357;52.188;7.838;2023-07-31T10:59:06;99911.94;;;21.39;64.57
29371;BME280;16357;52.188;7.838;2023-07-31T11:01:54;99919.28;;;21.38;65.02
29371;BME280;16357;52.188;7.838;2023-07-31T11:04:25;99912.13;;;21.37;64.99
29371;BME280;16357;52.188;7.838;2023-07-31T11:06:59;99908.38;;;21.38;64.82
29371;BME280;16357;52.188;7.838;2023-07-31T11:09:30;99906.19;;;21.40;65.10
29371;BME280;16357;52.188;7.838;2023-07-31T11:12:01;99907.88;;;21.41;64.94
29371;BME280;16357;52.188;7.838;2023-07-31T11:14:28;99899.44;;;21.43;64.91
29371;BME280;16357;52.188;7.838;2023-07-31T11:16:54;99898.09;;;21.45;64.98
29371;BME280;16357;52.188;7.838;2023-07-31T11:19:24;99903.91;;;21.49;64.92
29371;BME280;16357;52.188;7.838;2023-07-31T11:21:54;99912.66;;;21.51;65.35
29371;BME280;16357;52.188;7.838;2023-07-31T11:24:32;99905.03;;;21.53;65.24
29371;BME280;16357;52.188;7.838;2023-07-31T11:27:00;99901.81;;;21.56;65.23
29371;BME280;16357;52.188;7.838;2023-07-31T11:29:28;99896.44;;;21.61;65.64
29371;BME280;16357;52.188;7.838;2023-07-31T11:31:55;99898.41;;;21.66;65.46
29371;BME280;16357;52.188;7.838;2023-07-31T11:34:21;99904.19;;;21.69;65.00
29371;BME280;16357;52.188;7.838;2023-07-31T11:36:55;99906.44;;;21.73;64.58
29371;BME280;16357;52.188;7.838;2023-07-31T11:39:25;99900.13;;;21.72;64.53
29371;BME280;16357;52.188;7.838;2023-07-31T11:41:58;99902.38;;;21.75;64.42
29371;BME280;16357;52.188;7.838;2023-07-31T11:44:25;99899.06;;;21.73;64.38
29371;BME280;16357;52.188;7.838;2023-07-31T11:46:56;99899.06;;;21.73;64.52
29371;BME280;16357;52.188;7.838;2023-07-31T11:49:23;99890.31;;;21.71;64.21
29371;BME280;16357;52.188;7.838;2023-07-31T11:51:50;99891.41;;;21.70;64.26
29371;BME280;16357;52.188;7.838;2023-07-31T11:54:17;99896.84;;;21.70;64.70
29371;BME280;16357;52.188;7.838;2023-07-31T11:56:44;99888.41;;;21.72;64.24
29371;BME280;16357;52.188;7.838;2023-07-31T11:59:10;99883.75;;;21.72;64.57
29371;BME280;16357;52.188;7.838;2023-07-31T12:01:39;99889.81;;;21.74;64.42
29371;BME280;16357;52.188;7.838;2023-07-31T12:04:05;99881.38;;;21.76;64.44
29371;BME280;16357;52.188;7.838;2023-07-31T12:06:34;99886.56;;;21.77;64.16
29371;BME280;16357;52.188;7.838;2023-07-31T12:09:04;99883.84;;;21.77;64.17
29371;BME280;16357;52.188;7.838;2023-07-31T12:11:48;99882.78;;;21.78;64.10
29371;BME280;16357;52.188;7.838;2023-07-31T12:14:20;99895.34;;;21.79;63.83
29371;BME280;16357;52.188;7.838;2023-07-31T12:16:47;99896.44;;;21.78;63.89
29371;BME280;16357;52.188;7.838;2023-07-31T12:19:14;99881.69;;;21.79;64.22
29371;BME280;16357;52.188;7.838;2023-07-31T12:21:40;99895.91;;;21.81;64.08
29371;BME280;16357;52.188;7.838;2023-07-31T12:24:07;99892.94;;;21.83;64.03
29371;BME280;16357;52.188;7.838;2023-07-31T12:26:34;99882.84;;;21.83;63.97
29371;BME280;16357;52.188;7.838;2023-07-31T12:29:01;99886.16;;;21.85;64.18
29371;BME280;16357;52.188;7.838;2023-07-31T12:31:28;99881.25;;;21.87;63.97
29371;BME280;16357;52.188;7.838;2023-07-31T12:33:55;99891.09;;;21.88;64.12
29371;BME280;16357;52.188;7.838;2023-07-31T12:36:23;99881.81;;;21.89;64.19
29371;BME280;16357;52.188;7.838;2023-07-31T12:38:51;99888.94;;;21.90;63.69
29371;BME280;16357;52.188;7.838;2023-07-31T12:41:18;99881.59;;;21.91;63.77
29371;BME280;16357;52.188;7.838;2023-07-31T12:43:45;99885.13;;;21.91;63.90
29371;BME280;16357;52.188;7.838;2023-07-31T12:46:12;99880.50;;;21.92;64.14
29371;BME280;16357;52.188;7.838;2023-07-31T12:48:39;99876.69;;;21.93;63.77
29371;BME280;16357;52.188;7.838;2023-07-31T12:51:06;99869.34;;;21.94;64.28
29371;BME280;16357;52.188;7.838;2023-07-31T12:53:33;99873.19;;;21.98;63.95
29371;BME280;16357;52.188;7.838;2023-07-31T12:56:01;99871.34;;;22.03;64.04
29371;BME280;16357;52.188;7.838;2023-07-31T12:58:28;99871.69;;;22.07;63.90
29371;BME280;16357;52.188;7.838;2023-07-31T13:00:55;99861.88;;;22.11;64.04
29371;BME280;16357;52.188;7.838;2023-07-31T13:03:21;99861.13;;;22.16;63.70